Time;durP1;ratioP1;P1;durP2;ratioP2;P2;SDS_P1;SDS_P2;PMS_P1;PMS_P2;Temp;Humidity;BMP_temperature;BMP_pressure;BME280_temperature;BME280_humidity;BME280_pressure;Samples;Min_cycle;Max_cycle;Signal;HPM_P1;HPM_P2
2023/08/14 00:02:36;;;;;;;6.15;4.30;;;;;;;;;;5050308;28;20725;-74
2023/08/14 00:05:21;;;;;;;9.40;4.22;;;;;;;;;;5033779;28;20249;-74
2023/08/14 00:08:06;;;;;;;4.68;3.65;;;;;;;;;;5035048;28;20196;-73
2023/08/14 00:10:50;;;;;;;8.50;4.35;;;;;;;;;;5045470;28;20207;-74
2023/08/14 00:13:54;;;;;;;8.43;4.43;;;;;;;;;;5059332;28;20267;-73
2023/08/14 00:16:39;;;;;;;6.25;4.32;;;;;;;;;;5054199;28;20185;-73
2023/08/14 00:19:24;;;;;;;6.53;4.22;;;;;;;;;;5037448;28;20204;-73
2023/08/14 00:22:09;;;;;;;8.32;4.53;;;;;;;;;;5054328;28;20213;-73
2023/08/14 00:24:53;;;;;;;6.27;4.70;;;;;;;;;;5049989;28;20562;-73
2023/08/14 00:27:38;;;;;;;6.18;4.15;;;;;;;;;;5052899;28;20219;-73
2023/08/14 00:30:22;;;;;;;7.73;4.00;;;;;;;;;;5039979;28;20230;-73
2023/08/14 00:33:07;;;;;;;9.43;4.78;;;;;;;;;;5039605;28;20193;-73
2023/08/14 00:35:52;;;;;;;9.38;4.65;;;;;;;;;;5044226;28;20211;-73
2023/08/14 00:38:36;;;;;;;5.78;4.55;;;;;;;;;;5041193;28;20675;-73
2023/08/14 00:41:21;;;;;;;9.03;5.27;;;;;;;;;;5037637;28;20593;-72
2023/08/14 00:44:05;;;;;;;6.35;4.50;;;;;;;;;;5050195;28;20233;-73
2023/08/14 00:46:50;;;;;;;5.20;4.65;;;;;;;;;;5055869;28;20194;-73
2023/08/14 00:49:35;;;;;;;5.30;4.47;;;;;;;;;;5042162;28;20383;-73
2023/08/14 00:52:20;;;;;;;7.17;4.20;;;;;;;;;;5046768;28;20262;-76
2023/08/14 00:55:07;;;;;;;5.82;4.38;;;;;;;;;;5049680;28;20234;-72
2023/08/14 00:57:55;;;;;;;7.50;4.57;;;;;;;;;;5051358;28;20318;-73
2023/08/14 01:00:42;;;;;;;7.97;5.17;;;;;;;;;;5051410;28;20211;-76
2023/08/14 01:03:26;;;;;;;7.23;5.17;;;;;;;;;;5045463;28;20253;-74
2023/08/14 01:06:11;;;;;;;8.80;5.27;;;;;;;;;;5045406;28;20230;-74
2023/08/14 01:08:55;;;;;;;7.05;4.57;;;;;;;;;;5049010;28;20179;-73
2023/08/14 01:11:46;;;;;;;9.83;5.07;;;;;;;;;;5057440;28;20495;-74
2023/08/14 01:14:33;;;;;;;5.90;4.63;;;;;;;;;;5051289;28;20183;-74
2023/08/14 01:17:18;;;;;;;13.03;4.83;;;;;;;;;;5032041;28;20246;-74
2023/08/14 01:20:04;;;;;;;8.33;4.73;;;;;;;;;;5048143;28;20280;-74
2023/08/14 01:22:58;;;;;;;6.40;4.47;;;;;;;;;;5033633;28;20178;-73
2023/08/14 01:25:43;;;;;;;7.28;4.72;;;;;;;;;;5034973;28;20321;-74
2023/08/14 01:28:29;;;;;;;8.13;5.43;;;;;;;;;;5036531;28;20254;-73
2023/08/14 01:31:14;;;;;;;7.80;4.67;;;;;;;;;;5051763;28;20267;-74
2023/08/14 01:33:59;;;;;;;4.93;4.43;;;;;;;;;;5037440;28;20407;-74
2023/08/14 01:36:49;;;;;;;6.97;5.07;;;;;;;;;;5056382;28;20217;-73
2023/08/14 01:39:41;;;;;;;6.43;4.83;;;;;;;;;;5049302;28;20270;-73
2023/08/14 01:42:32;;;;;;;7.10;4.50;;;;;;;;;;5031754;28;20210;-74
2023/08/14 01:45:19;;;;;;;9.03;5.03;;;;;;;;;;5031218;28;20214;-74
2023/08/14 01:48:07;;;;;;;7.90;4.90;;;;;;;;;;5039854;28;20191;-74
2023/08/14 01:50:52;;;;;;;7.77;4.93;;;;;;;;;;5037204;28;20214;-73
2023/08/14 01:53:37;;;;;;;5.57;4.97;;;;;;;;;;5050596;28;20182;-73
2023/08/14 01:56:22;;;;;;;6.37;4.87;;;;;;;;;;5037387;28;20220;-72
2023/08/14 01:59:06;;;;;;;7.00;4.33;;;;;;;;;;5049914;28;20259;-72
2023/08/14 02:01:51;;;;;;;8.73;4.90;;;;;;;;;;5049582;28;20197;-73
2023/08/14 02:04:35;;;;;;;8.83;4.87;;;;;;;;;;5049800;28;20268;-73
2023/08/14 02:07:20;;;;;;;6.73;5.00;;;;;;;;;;5049214;28;20240;-73
2023/08/14 02:10:05;;;;;;;9.17;5.43;;;;;;;;;;5034432;28;20284;-73
2023/08/14 02:12:50;;;;;;;4.83;4.33;;;;;;;;;;5048914;28;20248;-72
2023/08/14 02:15:35;;;;;;;10.47;4.57;;;;;;;;;;5049047;28;20201;-73
2023/08/14 02:18:19;;;;;;;12.27;4.90;;;;;;;;;;5038583;28;20218;-73
2023/08/14 02:21:04;;;;;;;5.97;4.73;;;;;;;;;;5036740;28;20250;-72
2023/08/14 02:23:50;;;;;;;5.67;5.03;;;;;;;;;;5032681;28;20185;-72
2023/08/14 02:26:34;;;;;;;6.47;4.70;;;;;;;;;;5027908;28;20264;-72
2023/08/14 02:29:19;;;;;;;4.90;4.40;;;;;;;;;;5039029;28;20224;-72
2023/08/14 02:32:03;;;;;;;7.83;5.13;;;;;;;;;;5040698;28;20237;-72
2023/08/14 02:34:49;;;;;;;7.80;4.90;;;;;;;;;;5030905;28;20669;-72
2023/08/14 02:37:34;;;;;;;8.77;5.30;;;;;;;;;;5047695;28;20271;-72
2023/08/14 02:40:18;;;;;;;5.60;4.73;;;;;;;;;;5056837;28;20218;-72
2023/08/14 02:43:03;;;;;;;5.87;4.40;;;;;;;;;;5035459;28;20194;-72
2023/08/14 02:45:48;;;;;;;9.87;4.63;;;;;;;;;;5033929;28;20230;-72
2023/08/14 02:48:32;;;;;;;7.77;4.63;;;;;;;;;;5050702;28;20186;-72
2023/08/14 02:51:17;;;;;;;7.67;4.87;;;;;;;;;;5029548;28;20198;-73
2023/08/14 02:54:01;;;;;;;7.43;4.97;;;;;;;;;;5041330;28;20213;-73
2023/08/14 02:56:46;;;;;;;7.27;4.90;;;;;;;;;;5037855;28;20678;-73
2023/08/14 02:59:33;;;;;;;7.50;4.80;;;;;;;;;;5034167;28;20235;-73
2023/08/14 03:02:17;;;;;;;5.60;4.77;;;;;;;;;;5051703;28;20616;-73
2023/08/14 03:05:02;;;;;;;9.73;5.30;;;;;;;;;;5047187;28;20332;-72
2023/08/14 03:07:46;;;;;;;5.53;4.93;;;;;;;;;;5051751;28;20191;-73
2023/08/14 03:10:31;;;;;;;7.80;4.90;;;;;;;;;;5031635;28;20583;-73
2023/08/14 03:13:15;;;;;;;6.20;5.23;;;;;;;;;;5028580;28;20268;-73
2023/08/14 03:16:00;;;;;;;8.60;5.20;;;;;;;;;;5031545;28;20754;-73
2023/08/14 03:18:45;;;;;;;9.17;5.83;;;;;;;;;;5047387;28;20234;-73
2023/08/14 03:21:30;;;;;;;8.50;4.90;;;;;;;;;;5042521;28;20273;-73
2023/08/14 03:24:14;;;;;;;6.10;4.70;;;;;;;;;;5032986;28;20256;-73
2023/08/14 03:26:59;;;;;;;4.87;3.93;;;;;;;;;;5042379;28;20272;-72
2023/08/14 03:29:43;;;;;;;6.20;4.67;;;;;;;;;;5045679;28;20257;-73
2023/08/14 03:32:28;;;;;;;5.60;5.00;;;;;;;;;;5033153;28;20559;-73
2023/08/14 03:35:12;;;;;;;6.07;4.53;;;;;;;;;;5038266;28;20241;-73
2023/08/14 03:37:57;;;;;;;6.83;4.40;;;;;;;;;;5053102;28;20256;-73
2023/08/14 03:40:41;;;;;;;7.33;5.40;;;;;;;;;;5037524;28;20316;-73
2023/08/14 03:43:26;;;;;;;7.33;5.00;;;;;;;;;;5037997;28;20199;-74
2023/08/14 03:46:11;;;;;;;6.03;4.60;;;;;;;;;;5047586;28;20324;-73
2023/08/14 03:48:55;;;;;;;7.43;4.83;;;;;;;;;;5053477;28;20206;-74
2023/08/14 03:51:40;;;;;;;5.83;4.70;;;;;;;;;;5044672;28;20213;-74
2023/08/14 03:54:24;;;;;;;8.50;4.87;;;;;;;;;;5036996;28;20667;-73
2023/08/14 03:57:09;;;;;;;6.20;4.20;;;;;;;;;;5049480;28;20194;-74
2023/08/14 03:59:53;;;;;;;6.87;5.10;;;;;;;;;;5043583;28;20726;-73
2023/08/14 04:02:38;;;;;;;7.23;4.97;;;;;;;;;;5044301;28;20191;-73
2023/08/14 04:05:23;;;;;;;8.03;5.47;;;;;;;;;;5050676;28;20582;-73
2023/08/14 04:08:08;;;;;;;5.60;5.00;;;;;;;;;;5038266;28;20253;-73
2023/08/14 04:10:57;;;;;;;11.13;5.23;;;;;;;;;;5050452;28;20210;-73
2023/08/14 04:13:42;;;;;;;7.90;5.00;;;;;;;;;;5047969;28;20179;-73
2023/08/14 04:16:41;;;;;;;8.57;5.50;;;;;;;;;;5051046;28;20190;-73
2023/08/14 04:19:25;;;;;;;7.23;5.20;;;;;;;;;;5051327;28;20194;-73
2023/08/14 04:22:10;;;;;;;7.37;5.37;;;;;;;;;;5050030;28;20654;-74
2023/08/14 04:24:55;;;;;;;7.77;5.40;;;;;;;;;;5048701;28;20219;-73
2023/08/14 04:27:40;;;;;;;7.97;5.50;;;;;;;;;;5053765;28;20232;-74
2023/08/14 04:30:24;;;;;;;6.30;5.07;;;;;;;;;;5056542;28;20222;-73
2023/08/14 04:33:09;;;;;;;9.27;5.53;;;;;;;;;;5040563;28;20190;-74
2023/08/14 04:35:53;;;;;;;7.80;5.60;;;;;;;;;;5052622;28;20201;-74
2023/08/14 04:38:38;;;;;;;10.37;5.73;;;;;;;;;;5051388;28;20197;-72
2023/08/14 04:41:23;;;;;;;6.90;5.07;;;;;;;;;;5057538;28;20238;-72
2023/08/14 04:44:08;;;;;;;7.50;5.10;;;;;;;;;;5049584;28;20199;-72
2023/08/14 04:46:52;;;;;;;8.63;5.77;;;;;;;;;;5052168;28;20186;-71
2023/08/14 04:49:37;;;;;;;5.70;5.07;;;;;;;;;;5049695;28;20183;-71
2023/08/14 04:52:22;;;;;;;9.07;5.30;;;;;;;;;;5039264;28;20609;-71
2023/08/14 04:55:07;;;;;;;6.80;4.93;;;;;;;;;;5043117;28;20561;-72
2023/08/14 04:57:51;;;;;;;6.50;5.10;;;;;;;;;;5036042;28;20213;-72
2023/08/14 05:00:36;;;;;;;7.70;5.67;;;;;;;;;;5050839;28;20616;-71
2023/08/14 05:03:20;;;;;;;5.13;4.60;;;;;;;;;;5048713;28;20682;-72
2023/08/14 05:06:05;;;;;;;8.20;5.90;;;;;;;;;;5049249;28;20206;-73
2023/08/14 05:08:49;;;;;;;9.43;5.57;;;;;;;;;;5045203;28;20686;-74
2023/08/14 05:11:34;;;;;;;6.80;5.33;;;;;;;;;;5057645;28;20254;-74
2023/08/14 05:14:19;;;;;;;9.73;5.60;;;;;;;;;;5050244;28;20194;-73
2023/08/14 05:17:03;;;;;;;6.70;5.57;;;;;;;;;;5051288;28;20689;-74
2023/08/14 05:19:48;;;;;;;7.20;6.00;;;;;;;;;;5033104;28;20238;-72
2023/08/14 05:22:32;;;;;;;7.90;5.97;;;;;;;;;;5034344;28;20192;-74
2023/08/14 05:25:17;;;;;;;9.43;6.40;;;;;;;;;;5054287;28;20706;-74
2023/08/14 05:28:01;;;;;;;9.77;7.10;;;;;;;;;;5058172;28;20708;-74
2023/08/14 05:30:46;;;;;;;9.47;6.43;;;;;;;;;;5039505;28;20222;-74
2023/08/14 05:33:30;;;;;;;9.20;7.00;;;;;;;;;;5055297;28;20562;-72
2023/08/14 05:36:15;;;;;;;11.77;6.97;;;;;;;;;;5054792;28;20226;-71
2023/08/14 05:38:59;;;;;;;10.30;7.50;;;;;;;;;;5035837;28;20190;-71
2023/08/14 05:41:44;;;;;;;9.00;7.33;;;;;;;;;;5050790;28;20214;-71
2023/08/14 05:44:29;;;;;;;11.43;8.10;;;;;;;;;;5048990;28;20217;-71
2023/08/14 05:47:14;;;;;;;10.10;8.23;;;;;;;;;;5037223;28;20194;-70
2023/08/14 05:49:58;;;;;;;9.57;8.50;;;;;;;;;;5035347;28;20214;-71
2023/08/14 05:52:43;;;;;;;11.27;8.63;;;;;;;;;;5036168;28;20326;-71
2023/08/14 05:55:27;;;;;;;12.90;8.57;;;;;;;;;;5035651;28;20282;-71
2023/08/14 05:58:12;;;;;;;11.90;8.27;;;;;;;;;;5048694;28;20187;-71
2023/08/14 06:00:57;;;;;;;11.73;8.70;;;;;;;;;;5038998;28;20222;-71
2023/08/14 06:03:41;;;;;;;11.57;8.77;;;;;;;;;;5021008;28;20187;-72
2023/08/14 06:06:26;;;;;;;10.13;9.13;;;;;;;;;;5039818;28;20230;-73
2023/08/14 06:09:11;;;;;;;11.77;9.23;;;;;;;;;;5036266;28;20195;-72
2023/08/14 06:11:55;;;;;;;12.65;9.75;;;;;;;;;;5051248;28;20194;-72
2023/08/14 06:14:40;;;;;;;10.07;9.07;;;;;;;;;;5042575;28;20279;-72
2023/08/14 06:17:25;;;;;;;12.60;8.73;;;;;;;;;;5046401;28;20293;-72
2023/08/14 06:20:10;;;;;;;12.13;9.13;;;;;;;;;;5052146;28;20213;-73
2023/08/14 06:22:55;;;;;;;14.87;8.40;;;;;;;;;;5048678;28;20182;-72
2023/08/14 06:25:39;;;;;;;11.73;7.28;;;;;;;;;;5049746;28;20231;-73
2023/08/14 06:28:25;;;;;;;11.70;6.68;;;;;;;;;;5049783;28;20192;-72
2023/08/14 06:31:09;;;;;;;10.87;5.73;;;;;;;;;;5041969;28;20269;-72
2023/08/14 06:33:54;;;;;;;11.07;6.28;;;;;;;;;;5044977;28;20182;-72
2023/08/14 06:36:39;;;;;;;8.10;5.25;;;;;;;;;;5055655;28;20183;-73
2023/08/14 06:39:23;;;;;;;8.60;5.10;;;;;;;;;;5034926;28;20631;-73
2023/08/14 06:42:08;;;;;;;14.35;5.05;;;;;;;;;;5049506;28;20202;-72
2023/08/14 06:44:53;;;;;;;9.15;5.15;;;;;;;;;;5042661;28;20230;-73
2023/08/14 06:47:43;;;;;;;10.65;4.95;;;;;;;;;;5030666;28;20198;-74
2023/08/14 06:50:27;;;;;;;11.32;5.05;;;;;;;;;;5047192;28;20721;-72
2023/08/14 06:53:12;;;;;;;8.68;5.15;;;;;;;;;;5045512;28;20190;-73
2023/08/14 06:55:56;;;;;;;8.30;4.68;;;;;;;;;;5047196;28;20186;-73
2023/08/14 06:58:41;;;;;;;5.80;4.10;;;;;;;;;;5044116;28;20187;-72
2023/08/14 07:01:25;;;;;;;6.63;3.38;;;;;;;;;;5048412;28;20249;-74
2023/08/14 07:04:11;;;;;;;7.53;3.97;;;;;;;;;;5039796;28;20193;-73
2023/08/14 07:06:55;;;;;;;8.10;3.60;;;;;;;;;;5051258;28;20661;-73
2023/08/14 07:09:40;;;;;;;6.38;3.10;;;;;;;;;;5052041;28;20191;-73
2023/08/14 07:12:25;;;;;;;4.95;3.25;;;;;;;;;;5037138;28;20230;-73
2023/08/14 07:15:11;;;;;;;6.70;2.70;;;;;;;;;;5033971;28;20226;-73
2023/08/14 07:17:55;;;;;;;9.18;3.35;;;;;;;;;;5050007;28;20187;-73
2023/08/14 07:20:40;;;;;;;11.80;3.25;;;;;;;;;;5051736;28;20260;-73
2023/08/14 07:23:25;;;;;;;5.60;3.20;;;;;;;;;;5037158;28;20191;-73
2023/08/14 07:26:12;;;;;;;7.00;3.35;;;;;;;;;;5050472;28;20361;-73
2023/08/14 07:28:57;;;;;;;6.32;2.70;;;;;;;;;;5053591;28;20268;-74
2023/08/14 07:31:41;;;;;;;7.72;3.40;;;;;;;;;;5036047;28;20226;-74
2023/08/14 07:34:26;;;;;;;5.30;2.80;;;;;;;;;;5053826;28;20209;-73
2023/08/14 07:37:11;;;;;;;6.30;3.03;;;;;;;;;;5045074;28;20182;-73
2023/08/14 07:39:55;;;;;;;8.27;3.47;;;;;;;;;;5039235;28;20669;-73
2023/08/14 07:42:39;;;;;;;5.95;3.17;;;;;;;;;;5036876;28;20214;-74
2023/08/14 07:45:24;;;;;;;6.95;3.58;;;;;;;;;;5048378;28;20214;-77
2023/08/14 07:48:08;;;;;;;5.70;3.10;;;;;;;;;;5037442;28;20187;-74
2023/08/14 07:50:54;;;;;;;9.98;3.85;;;;;;;;;;5036083;28;20234;-74
2023/08/14 07:53:38;;;;;;;8.05;3.47;;;;;;;;;;5039474;28;20291;-74
2023/08/14 07:56:23;;;;;;;7.70;3.47;;;;;;;;;;5036149;28;20218;-72
2023/08/14 07:59:07;;;;;;;7.22;3.22;;;;;;;;;;5034639;28;20237;-74
2023/08/14 08:01:52;;;;;;;6.03;3.20;;;;;;;;;;5052734;28;20191;-73
2023/08/14 08:04:37;;;;;;;9.77;3.30;;;;;;;;;;5050954;28;20195;-73
2023/08/14 08:07:22;;;;;;;8.15;3.00;;;;;;;;;;5052201;28;20278;-73
2023/08/14 08:10:07;;;;;;;8.68;3.28;;;;;;;;;;5038169;28;20218;-72
2023/08/14 08:12:51;;;;;;;7.63;2.85;;;;;;;;;;5043692;28;20237;-73
2023/08/14 08:15:35;;;;;;;6.88;3.40;;;;;;;;;;5050482;28;20309;-74
2023/08/14 08:18:20;;;;;;;7.68;3.08;;;;;;;;;;5050464;28;20190;-74
2023/08/14 08:21:05;;;;;;;6.55;3.50;;;;;;;;;;5036159;28;20269;-74
2023/08/14 08:23:49;;;;;;;6.45;2.92;;;;;;;;;;5049737;28;20198;-74
2023/08/14 08:26:34;;;;;;;12.15;3.05;;;;;;;;;;5039874;28;20210;-78
2023/08/14 08:29:19;;;;;;;9.25;3.35;;;;;;;;;;5050243;28;20201;-72
2023/08/14 08:32:04;;;;;;;9.13;3.30;;;;;;;;;;5057113;28;20194;-72
2023/08/14 08:34:49;;;;;;;7.85;3.22;;;;;;;;;;5050673;28;20194;-72
2023/08/14 08:37:33;;;;;;;8.45;3.70;;;;;;;;;;5049341;28;20190;-73
2023/08/14 08:40:18;;;;;;;8.93;3.63;;;;;;;;;;5034732;28;20253;-72
2023/08/14 08:43:03;;;;;;;8.25;3.47;;;;;;;;;;5032734;28;20262;-73
2023/08/14 08:45:51;;;;;;;7.45;2.90;;;;;;;;;;5034795;28;20219;-74
2023/08/14 08:48:37;;;;;;;9.85;3.13;;;;;;;;;;5034345;28;20207;-73
2023/08/14 08:51:23;;;;;;;5.03;3.13;;;;;;;;;;5050896;28;20725;-72
2023/08/14 08:54:08;;;;;;;7.95;2.80;;;;;;;;;;5031832;28;20191;-73
2023/08/14 08:56:53;;;;;;;10.70;3.88;;;;;;;;;;5054207;28;20271;-74
2023/08/14 08:59:40;;;;;;;6.07;3.10;;;;;;;;;;5047969;28;20182;-76
2023/08/14 09:02:24;;;;;;;4.57;2.75;;;;;;;;;;5044746;28;20190;-74
2023/08/14 09:05:09;;;;;;;6.72;3.50;;;;;;;;;;5034175;28;20222;-77
2023/08/14 09:07:54;;;;;;;8.13;3.53;;;;;;;;;;5055101;28;20183;-74
2023/08/14 09:10:38;;;;;;;7.55;3.15;;;;;;;;;;5049093;28;20265;-76
2023/08/14 09:13:23;;;;;;;9.60;3.00;;;;;;;;;;5036309;28;20186;-73
2023/08/14 09:16:08;;;;;;;7.80;3.58;;;;;;;;;;5027870;28;20267;-72
2023/08/14 09:18:52;;;;;;;6.32;3.00;;;;;;;;;;5039469;28;20273;-74
2023/08/14 09:21:37;;;;;;;7.57;3.03;;;;;;;;;;5059103;28;20256;-72
2023/08/14 09:24:22;;;;;;;8.43;3.50;;;;;;;;;;5045094;28;20222;-73
2023/08/14 09:27:07;;;;;;;8.63;3.03;;;;;;;;;;5039761;28;20214;-73
2023/08/14 09:29:53;;;;;;;7.28;3.13;;;;;;;;;;5054102;28;20831;-73
2023/08/14 09:32:38;;;;;;;7.38;2.97;;;;;;;;;;5057405;28;20225;-72
2023/08/14 09:35:23;;;;;;;8.40;2.95;;;;;;;;;;5037490;28;20186;-74
2023/08/14 09:38:08;;;;;;;6.97;3.05;;;;;;;;;;5044032;28;20212;-71
2023/08/14 09:40:57;;;;;;;10.27;3.03;;;;;;;;;;5041707;28;20251;-73
2023/08/14 09:43:44;;;;;;;6.00;2.45;;;;;;;;;;5059115;28;20201;-74
2023/08/14 09:46:29;;;;;;;6.68;3.35;;;;;;;;;;5058187;28;20603;-74
2023/08/14 09:49:16;;;;;;;9.93;3.15;;;;;;;;;;5038025;28;20182;-74
2023/08/14 09:52:01;;;;;;;5.60;3.17;;;;;;;;;;5052412;28;20294;-72
2023/08/14 09:54:46;;;;;;;6.97;2.83;;;;;;;;;;5047986;28;20293;-73
2023/08/14 09:57:31;;;;;;;9.45;2.55;;;;;;;;;;5048435;28;20190;-74
2023/08/14 10:00:16;;;;;;;7.93;2.70;;;;;;;;;;5036604;28;20298;-73
2023/08/14 10:03:01;;;;;;;8.73;2.40;;;;;;;;;;5047473;28;20266;-75
2023/08/14 10:05:45;;;;;;;6.18;2.60;;;;;;;;;;5054719;28;20222;-74
2023/08/14 10:08:30;;;;;;;4.85;2.05;;;;;;;;;;5047266;28;20225;-75
2023/08/14 10:11:17;;;;;;;7.05;2.20;;;;;;;;;;5032528;28;20634;-73
2023/08/14 10:14:06;;;;;;;6.30;2.30;;;;;;;;;;5055309;28;20318;-73
2023/08/14 10:16:52;;;;;;;4.97;1.90;;;;;;;;;;5036029;28;20198;-72
2023/08/14 10:19:37;;;;;;;4.10;1.95;;;;;;;;;;5052890;28;20196;-75
2023/08/14 10:22:23;;;;;;;5.38;1.77;;;;;;;;;;5033231;28;20194;-74
2023/08/14 10:25:08;;;;;;;5.05;2.30;;;;;;;;;;5042642;28;20211;-75
2023/08/14 10:27:53;;;;;;;5.78;2.30;;;;;;;;;;5047001;28;20364;-73
2023/08/14 10:30:38;;;;;;;4.57;1.98;;;;;;;;;;5049405;28;20880;-76
2023/08/14 10:33:23;;;;;;;6.43;2.03;;;;;;;;;;5046182;28;20324;-73
2023/08/14 10:36:08;;;;;;;5.43;2.00;;;;;;;;;;5039083;28;20185;-73
2023/08/14 10:38:52;;;;;;;5.80;2.28;;;;;;;;;;5052404;28;20187;-74
2023/08/14 10:41:37;;;;;;;6.20;2.15;;;;;;;;;;5057770;28;20269;-73
2023/08/14 10:44:21;;;;;;;3.58;1.80;;;;;;;;;;5036767;28;20183;-77
2023/08/14 10:47:07;;;;;;;6.10;2.00;;;;;;;;;;5048809;28;20271;-73
2023/08/14 10:49:52;;;;;;;6.70;2.25;;;;;;;;;;5047278;28;20213;-74
2023/08/14 10:52:36;;;;;;;4.05;1.70;;;;;;;;;;5059252;28;20653;-74
2023/08/14 10:55:27;;;;;;;4.60;1.95;;;;;;;;;;5036750;28;20191;-74
2023/08/14 10:58:35;;;;;;;7.95;2.17;;;;;;;;;;5051488;28;20183;-73
2023/08/14 11:01:19;;;;;;;4.93;2.08;;;;;;;;;;5045694;28;20268;-74
2023/08/14 11:04:05;;;;;;;4.80;1.90;;;;;;;;;;5031700;28;20261;-74
2023/08/14 11:06:58;;;;;;;6.78;1.70;;;;;;;;;;5045630;28;20234;-78
2023/08/14 11:09:46;;;;;;;5.57;1.90;;;;;;;;;;5046516;28;20241;-72
2023/08/14 11:12:31;;;;;;;3.72;1.98;;;;;;;;;;5044524;28;20543;-74
2023/08/14 11:15:16;;;;;;;5.50;1.60;;;;;;;;;;5029650;28;20562;-73
2023/08/14 11:18:01;;;;;;;5.07;1.95;;;;;;;;;;5037656;28;20715;-74
2023/08/14 11:20:46;;;;;;;6.28;2.28;;;23.40;99.90;;;;;;5047233;28;20244;-76
2023/08/14 11:23:33;;;;;;;7.30;2.20;;;;;;;;;;5035857;28;20195;-73
2023/08/14 11:26:19;;;;;;;6.88;1.95;;;;;;;;;;5037109;28;20252;-73
2023/08/14 11:29:04;;;;;;;5.75;2.05;;;;;;;;;;5033862;28;20713;-73
2023/08/14 11:31:48;;;;;;;4.45;1.75;;;;;;;;;;5031127;28;20663;-74
2023/08/14 11:34:34;;;;;;;5.03;1.85;;;;;;;;;;5029515;28;20186;-73
2023/08/14 11:37:19;;;;;;;4.20;1.77;;;;;;;;;;5028166;28;20191;-77
2023/08/14 11:40:04;;;;;;;3.47;1.73;;;;;;;;;;5044179;28;20211;-73
2023/08/14 11:42:49;;;;;;;3.15;1.55;;;;;;;;;;5044860;28;20183;-74
2023/08/14 11:45:34;;;;;;;6.05;1.90;;;;;;;;;;5035823;28;20268;-74
2023/08/14 11:48:19;;;;;;;5.85;1.52;;;;;;;;;;5031601;28;20206;-74
2023/08/14 11:51:04;;;;;;;4.70;1.60;;;;;;;;;;5039386;28;20219;-75
2023/08/14 11:53:48;;;;;;;2.53;1.67;;;;;;;;;;5047466;28;20230;-74
2023/08/14 11:56:33;;;;;;;5.13;1.67;;;;;;;;;;5036132;28;20203;-74
2023/08/14 11:59:19;;;;;;;5.28;1.50;;;;;;;;;;5054899;28;20195;-74
2023/08/14 12:02:04;;;;;;;2.65;1.60;;;;;;;;;;5038068;28;20191;-74
2023/08/14 12:05:00;;;;;;;6.55;1.83;;;;;;;;;;5044315;28;20574;-80
2023/08/14 12:07:45;;;;;;;5.30;1.95;;;;;;;;;;5046272;28;20186;-74
2023/08/14 12:10:33;;;;;;;5.45;1.80;;;;;;;;;;5030379;28;20210;-75
2023/08/14 12:13:20;;;;;;;2.30;1.40;;;;;;;;;;5036933;28;20284;-73
2023/08/14 12:16:08;;;;;;;5.40;2.10;;;;;;;;;;5052012;28;20265;-73
2023/08/14 12:18:53;;;;;;;3.35;1.77;;;;;;;;;;5046721;28;20249;-75
2023/08/14 12:21:39;;;;;;;5.78;1.90;;;;;;;;;;5050014;28;20213;-73
2023/08/14 12:24:23;;;;;;;3.00;1.83;;;;;;;;;;5047044;28;20190;-74
2023/08/14 12:27:21;;;;;;;6.43;2.00;;;;;;;;;;5044037;28;20406;-74
2023/08/14 12:30:06;;;;;;;4.35;1.60;;;;;;;;;;5047448;28;20572;-74
2023/08/14 12:32:51;;;;;;;6.97;2.22;;;;;;;;;;5047182;28;20566;-73
2023/08/14 12:35:36;;;;;;;5.78;1.80;;;;;;;;;;5053966;28;20260;-74
2023/08/14 12:38:21;;;;;;;5.55;1.50;;;;;;;;;;5041241;28;20190;-73
2023/08/14 12:41:06;;;;;;;3.67;1.50;;;;;;;;;;5045608;28;20245;-73
2023/08/14 12:43:51;;;;;;;5.15;1.80;;;;;;;;;;5052776;28;20187;-74
2023/08/14 12:46:36;;;;;;;4.30;1.40;;;;;;;;;;5050138;28;20222;-73
2023/08/14 12:49:21;;;;;;;3.40;1.55;;;;;;;;;;5035819;28;20288;-72
2023/08/14 12:52:06;;;;;;;5.72;1.70;;;;;;;;;;5039942;28;20234;-73
2023/08/14 12:54:51;;;;;;;8.82;1.80;;;;;;;;;;5051868;28;20267;-74
2023/08/14 12:57:35;;;;;;;6.55;1.92;;;;;;;;;;5031230;28;20225;-74
2023/08/14 13:00:21;;;;;;;4.35;1.77;;;;;;;;;;5058712;28;20230;-73
2023/08/14 13:03:06;;;;;;;2.60;1.50;;;;;;;;;;5059099;28;20206;-75
2023/08/14 13:05:50;;;;;;;3.15;1.60;;;;;;;;;;5039480;28;20689;-73
2023/08/14 13:08:35;;;;;;;7.55;2.05;;;;;;;;;;5041199;28;20181;-75
2023/08/14 13:11:20;;;;;;;4.07;1.83;;;;;;;;;;5055771;28;20210;-74
2023/08/14 13:14:04;;;;;;;5.40;1.13;;;;;;;;;;5053643;28;20344;-73
2023/08/14 13:16:49;;;;;;;4.18;1.52;;;;;;;;;;5046571;28;20556;-74
2023/08/14 13:19:33;;;;;;;3.53;1.60;;;;;;;;;;5048497;28;20195;-74
2023/08/14 13:22:18;;;;;;;3.10;1.65;;;;;;;;;;5052028;28;20266;-74
2023/08/14 13:25:03;;;;;;;5.95;2.03;;;;;;;;;;5053914;28;20211;-74
2023/08/14 13:27:47;;;;;;;5.03;2.00;;;;;;;;;;5045082;28;20186;-74
2023/08/14 13:30:32;;;;;;;7.50;2.13;;;;;;;;;;5035808;28;20751;-74
2023/08/14 13:33:17;;;;;;;5.80;1.67;;;;;;;;;;5050928;28;20217;-75
2023/08/14 13:36:02;;;;;;;5.20;1.90;;;;;;;;;;5038348;28;20731;-74
2023/08/14 13:38:46;;;;;;;5.07;1.70;;;;;;;;;;5057986;28;20186;-74
2023/08/14 13:41:31;;;;;;;4.80;1.80;;;;;;;;;;5041240;28;20206;-74
2023/08/14 13:44:16;;;;;;;4.07;1.90;;;;;;;;;;5051970;28;20197;-74
2023/08/14 13:47:01;;;;;;;3.88;1.67;;;;;;;;;;5050441;28;20253;-75
2023/08/14 13:49:46;;;;;;;5.25;2.28;;;;;;;;;;5048926;28;20199;-74
2023/08/14 13:52:31;;;;;;;3.08;1.88;;;;;;;;;;5049718;28;20305;-74
2023/08/14 13:55:15;;;;;;;4.22;1.63;;;;;;;;;;5035833;28;20198;-74
2023/08/14 13:58:01;;;;;;;5.38;1.48;;;;;;;;;;5045456;28;20278;-74
2023/08/14 14:00:45;;;;;;;5.28;2.00;;;;;;;;;;5044878;28;20243;-76
2023/08/14 14:03:30;;;;;;;5.18;2.10;;;;;;;;;;5054589;28;20182;-76
2023/08/14 14:06:15;;;;;;;3.85;1.83;;;;;;;;;;5049293;28;20198;-75
2023/08/14 14:08:59;;;;;;;8.88;1.90;;;;;;;;;;5047687;28;20306;-76
2023/08/14 14:11:44;;;;;;;4.90;1.95;;;;;;;;;;5031941;28;20248;-76
2023/08/14 14:14:29;;;;;;;7.85;1.70;;;;;;;;;;5035713;28;20237;-77
2023/08/14 14:17:13;;;;;;;10.57;3.10;;;;;;;;;;5051501;28;20224;-75
2023/08/14 14:19:58;;;;;;;5.93;2.40;;;;;;;;;;5048952;28;20424;-76
2023/08/14 14:22:43;;;;;;;4.60;2.15;;;;;;;;;;5044485;28;20190;-76
2023/08/14 14:25:28;;;;;;;4.30;1.90;;;;;;;;;;5035784;28;20214;-76
2023/08/14 14:28:14;;;;;;;3.42;2.00;;;;;;;;;;5036197;28;20241;-76
2023/08/14 14:30:59;;;;;;;5.35;2.00;;;;;;;;;;5059381;28;20230;-76
2023/08/14 14:33:43;;;;;;;6.38;1.80;;;;;;;;;;5041810;28;20207;-76
2023/08/14 14:36:28;;;;;;;3.47;1.60;;;;;;;;;;5047807;28;20183;-75
2023/08/14 14:39:14;;;;;;;4.43;2.38;;;;;;;;;;5037063;28;20279;-75
2023/08/14 14:41:59;;;;;;;8.85;4.38;;;;;;;;;;5050513;28;20392;-75
2023/08/14 14:44:43;;;;;;;8.25;3.80;;;;;;;;;;5032127;28;20506;-76
2023/08/14 14:47:31;;;;;;;9.43;3.15;;;;;;;;;;5047832;28;20689;-76
2023/08/14 14:50:15;;;;;;;5.07;2.22;;;;;;;;;;5035354;28;20238;-76
2023/08/14 14:53:00;;;;;;;7.85;2.13;;;;;;;;;;5039554;28;20215;-76
2023/08/14 14:55:45;;;;;;;8.50;1.92;;;;;;;;;;5031692;28;20234;-75
2023/08/14 14:58:30;;;;;;;4.93;1.95;;;;;;;;;;5027942;28;20318;-76
2023/08/14 15:01:14;;;;;;;3.90;2.20;;;;;;;;;;5049409;28;20219;-76
2023/08/14 15:03:59;;;;;;;4.00;1.80;;;;;;;;;;5051993;28;20592;-76
2023/08/14 15:06:43;;;;;;;5.55;2.10;;;;;;;;;;5049407;28;20206;-77
2023/08/14 15:09:28;;;;;;;6.05;2.67;;;;;;;;;;5047748;28;20224;-76
2023/08/14 15:12:13;;;;;;;4.60;1.83;;;;;;;;;;5028445;28;20267;-76
2023/08/14 15:14:57;;;;;;;3.78;2.20;;;;;;;;;;5041235;28;20228;-76
2023/08/14 15:17:42;;;;;;;4.70;1.98;;;;;;;;;;5045710;28;20182;-76
2023/08/14 15:20:26;;;;;;;4.15;2.17;;;;;;;;;;5034550;28;20241;-76
2023/08/14 15:23:11;;;;;;;5.40;2.08;;;;;;;;;;5033126;28;20423;-76
2023/08/14 15:25:55;;;;;;;6.97;2.17;;;;;;;;;;5042460;28;20218;-76
2023/08/14 15:28:40;;;;;;;11.48;2.17;;;;;;;;;;5030961;28;20276;-76
2023/08/14 15:31:25;;;;;;;6.57;2.00;;;;;;;;;;5036366;28;20412;-75
2023/08/14 15:34:09;;;;;;;5.82;2.05;;;;;;;;;;5049449;28;20182;-76
2023/08/14 15:36:54;;;;;;;5.63;1.98;;;;;;;;;;5030851;28;20198;-76
2023/08/14 15:39:40;;;;;;;5.57;2.00;;;;;;;;;;5047785;28;20213;-75
2023/08/14 15:42:24;;;;;;;4.50;1.98;;;;;;;;;;5038860;28;20388;-76
2023/08/14 15:45:09;;;;;;;5.13;2.00;;;;;;;;;;5044800;28;20404;-76
2023/08/14 15:47:58;;;;;;;5.60;2.17;;;;;;;;;;5035297;28;20427;-76
2023/08/14 15:50:42;;;;;;;7.90;2.03;;;;;;;;;;5052118;28;20260;-77
2023/08/14 15:53:27;;;;;;;4.47;1.98;;;;;;;;;;5038620;28;20667;-77
2023/08/14 15:56:12;;;;;;;5.88;1.90;;;;;;;;;;5048318;28;20190;-77
2023/08/14 15:58:56;;;;;;;5.18;2.10;;;;;;;;;;5037064;28;20198;-77
2023/08/14 16:01:41;;;;;;;4.72;1.65;;;;;;;;;;5037285;28;20263;-77
2023/08/14 16:04:25;;;;;;;8.23;1.60;;;;;;;;;;5052892;28;20206;-77
2023/08/14 16:07:10;;;;;;;5.93;2.00;;;;;;;;;;5058676;28;20673;-79
2023/08/14 16:09:55;;;;;;;3.63;2.03;;;;;;;;;;5027372;28;20213;-78
2023/08/14 16:12:39;;;;;;;8.38;2.00;;;;;;;;;;5041513;28;20221;-79
2023/08/14 16:15:24;;;;;;;3.78;1.60;;;;;;;;;;5034531;28;20198;-76
2023/08/14 16:18:08;;;;;;;4.15;1.75;;;;;;;;;;5057433;28;20217;-77
2023/08/14 16:20:53;;;;;;;4.93;1.70;;;;;;;;;;5045096;28;20280;-77
2023/08/14 16:23:38;;;;;;;4.90;2.42;;;;;;;;;;5050163;28;20639;-77
2023/08/14 16:26:22;;;;;;;3.72;2.05;;;;;;;;;;5050038;28;20226;-77
2023/08/14 16:29:07;;;;;;;5.82;2.05;;;;;;;;;;5052434;28;20230;-75